createdAt,value
2018-06-23T00:01:13.029Z,69.00
2018-06-23T00:03:40.834Z,69.10
2018-06-23T00:06:08.597Z,69.00
2018-06-23T00:08:36.305Z,69.30
2018-06-23T00:11:04.053Z,69.10
2018-06-23T00:13:31.796Z,69.20
2018-06-23T00:15:59.557Z,69.50
2018-06-23T00:18:27.260Z,69.20
2018-06-23T00:20:54.991Z,69.10
2018-06-23T00:23:22.721Z,69.40
2018-06-23T00:25:55.717Z,69.00
2018-06-23T00:28:23.490Z,69.50
2018-06-23T00:30:51.251Z,69.50
2018-06-23T00:33:18.957Z,69.40
2018-06-23T00:35:46.665Z,69.40
2018-06-23T00:38:14.426Z,69.60
2018-06-23T00:40:42.127Z,69.60
2018-06-23T00:45:37.329Z,69.60
2018-06-23T00:48:05.112Z,69.60
2018-06-23T00:50:32.866Z,69.50
2018-06-23T00:53:00.612Z,69.70
2018-06-23T00:55:28.398Z,69.70
2018-06-23T00:57:56.137Z,70.30
2018-06-23T01:00:23.864Z,69.80
2018-06-23T01:02:51.607Z,69.40
2018-06-23T01:05:19.300Z,69.30
2018-06-23T01:10:15.334Z,69.40
2018-06-23T01:12:43.085Z,69.60
2018-06-23T01:15:11.849Z,69.70
2018-06-23T01:17:39.541Z,70.00
2018-06-23T01:20:08.341Z,69.70
2018-06-23T01:22:36.106Z,69.70
2018-06-23T01:25:03.807Z,69.90
2018-06-23T01:27:31.550Z,69.70
2018-06-23T01:30:00.135Z,69.80
2018-06-23T01:32:27.820Z,69.60
2018-06-23T01:34:55.531Z,69.60
2018-06-23T01:37:23.241Z,69.70
2018-06-23T01:39:50.923Z,69.80
2018-06-23T01:44:46.070Z,69.60
2018-06-23T01:47:13.771Z,69.60
2018-06-23T01:49:41.512Z,69.80
2018-06-23T01:52:09.246Z,69.50
2018-06-23T01:54:36.957Z,69.60
2018-06-23T01:57:04.941Z,69.50
2018-06-23T01:59:33.640Z,69.60
2018-06-23T02:02:02.365Z,69.60
2018-06-23T02:04:30.074Z,69.60
2018-06-23T02:06:57.758Z,69.60
2018-06-23T02:09:25.456Z,69.60
2018-06-23T02:11:53.170Z,69.60
2018-06-23T02:14:27.469Z,69.70
2018-06-23T02:17:00.653Z,69.70
2018-06-23T02:19:34.936Z,69.50
2018-06-23T02:22:08.029Z,69.50
2018-06-23T02:24:42.157Z,69.70
2018-06-23T02:27:15.305Z,69.70
2018-06-23T02:29:48.614Z,69.60
2018-06-23T02:32:21.984Z,69.60
2018-06-23T02:34:56.209Z,69.60
2018-06-23T02:37:23.951Z,69.70
2018-06-23T02:39:52.557Z,69.30
2018-06-23T02:42:20.290Z,69.30
2018-06-23T02:44:48.046Z,69.10
2018-06-23T02:47:15.791Z,69.00
2018-06-23T02:49:44.520Z,68.90
2018-06-23T02:52:13.233Z,69.00
2018-06-23T02:54:41.912Z,69.50
2018-06-23T02:57:09.614Z,69.30
2018-06-23T02:59:37.399Z,69.30
2018-06-23T03:02:05.258Z,69.40
2018-06-23T03:04:33.846Z,69.30
2018-06-23T03:09:30.037Z,69.30
2018-06-23T03:11:57.750Z,69.30
2018-06-23T03:14:26.376Z,69.20
2018-06-23T03:16:54.118Z,69.30
2018-06-23T03:19:21.817Z,69.10
2018-06-23T03:21:50.581Z,69.10
2018-06-23T03:24:18.345Z,69.20
2018-06-23T03:26:46.106Z,69.40
2018-06-23T03:31:41.321Z,69.50
2018-06-23T03:34:09.050Z,69.40
2018-06-23T03:36:36.792Z,69.50
2018-06-23T03:39:06.463Z,69.40
2018-06-23T03:41:34.171Z,69.70
2018-06-23T03:44:02.388Z,69.30
2018-06-23T03:46:30.081Z,69.40
2018-06-23T03:48:57.806Z,69.30
2018-06-23T03:51:25.546Z,69.40
2018-06-23T03:53:53.240Z,69.30
2018-06-23T03:56:21.060Z,69.40
2018-06-23T03:58:48.752Z,69.40
2018-06-23T04:01:16.463Z,69.30
2018-06-23T04:03:44.224Z,69.20
2018-06-23T04:06:11.924Z,69.30
2018-06-23T04:08:40.544Z,68.80
2018-06-23T04:11:08.218Z,69.20
2018-06-23T04:13:36.958Z,68.90
2018-06-23T04:16:05.704Z,69.20
2018-06-23T04:18:33.388Z,69.40
2018-06-23T04:21:01.125Z,69.00
2018-06-23T04:23:28.809Z,68.90
2018-06-23T04:25:56.514Z,69.00
2018-06-23T04:28:24.202Z,69.10
2018-06-23T04:30:51.885Z,69.10
2018-06-23T04:33:19.575Z,69.20
2018-06-23T04:35:47.261Z,69.20
2018-06-23T04:38:14.949Z,69.20
2018-06-23T04:40:42.635Z,68.90
2018-06-23T04:43:10.357Z,69.00
2018-06-23T04:45:38.057Z,68.90
2018-06-23T04:48:05.859Z,69.00
2018-06-23T04:50:33.570Z,68.80
2018-06-23T04:53:01.268Z,68.80
2018-06-23T04:55:28.962Z,69.10
2018-06-23T04:57:56.707Z,69.20
2018-06-23T05:00:26.031Z,69.00
2018-06-23T05:02:54.713Z,68.80
2018-06-23T05:07:50.069Z,69.10
2018-06-23T05:10:17.804Z,68.80
2018-06-23T05:12:45.494Z,69.00
2018-06-23T05:15:13.209Z,69.00
2018-06-23T05:17:40.900Z,69.00
2018-06-23T05:20:09.627Z,69.10
2018-06-23T05:22:37.367Z,69.30
2018-06-23T05:25:05.266Z,68.90
2018-06-23T05:27:33.986Z,69.00
2018-06-23T05:30:01.681Z,69.00
2018-06-23T05:32:29.430Z,69.30
2018-06-23T05:34:57.163Z,69.00
2018-06-23T05:37:24.868Z,69.40
2018-06-23T05:39:52.588Z,69.20
2018-06-23T05:42:20.312Z,69.00
2018-06-23T05:44:48.063Z,68.90
2018-06-23T05:47:16.646Z,69.00
2018-06-23T05:49:44.379Z,69.00
2018-06-23T05:52:13.089Z,69.00
2018-06-23T05:54:41.831Z,69.10
2018-06-23T05:57:10.560Z,69.40
2018-06-23T05:59:38.281Z,68.90
2018-06-23T06:02:05.979Z,69.00
2018-06-23T06:04:33.668Z,68.80
2018-06-23T06:07:01.429Z,69.00
2018-06-23T06:09:29.141Z,69.20
2018-06-23T06:11:57.801Z,69.10
2018-06-23T06:14:26.477Z,69.00
2018-06-23T06:17:30.357Z,68.90
2018-06-23T06:20:03.949Z,69.00
2018-06-23T06:22:32.798Z,69.20
2018-06-23T06:25:00.537Z,69.10
2018-06-23T06:27:28.429Z,69.00
2018-06-23T06:29:56.800Z,68.90
2018-06-23T06:32:24.957Z,69.30
2018-06-23T06:34:53.697Z,69.40
2018-06-23T06:37:21.397Z,69.20
2018-06-23T06:39:49.099Z,69.30
2018-06-23T06:42:17.094Z,69.00
2018-06-23T06:44:45.740Z,69.00
2018-06-23T06:47:15.954Z,69.00
2018-06-23T06:49:43.674Z,69.10
2018-06-23T06:52:12.373Z,69.00
2018-06-23T06:54:40.074Z,69.10
2018-06-23T06:57:07.799Z,69.00
2018-06-23T06:59:36.499Z,69.00
2018-06-23T07:02:05.165Z,68.90
2018-06-23T07:04:33.898Z,68.90
2018-06-23T07:07:01.613Z,68.90
2018-06-23T07:09:29.340Z,69.10
2018-06-23T07:11:57.021Z,69.10
2018-06-23T07:14:24.757Z,69.10
2018-06-23T07:16:53.521Z,68.90
2018-06-23T07:19:22.097Z,69.00
2018-06-23T07:21:49.824Z,69.30
2018-06-23T07:24:17.519Z,69.10
2018-06-23T07:26:45.242Z,69.30
2018-06-23T07:29:12.920Z,69.40
2018-06-23T07:31:40.678Z,69.40
2018-06-23T07:34:08.411Z,69.50
2018-06-23T07:36:36.082Z,69.40
2018-06-23T07:39:05.983Z,69.60
2018-06-23T07:41:34.705Z,69.70
2018-06-23T07:44:02.402Z,69.60
2018-06-23T07:46:30.149Z,69.90
2018-06-23T07:48:58.946Z,70.20
2018-06-23T07:51:26.697Z,70.20
2018-06-23T07:53:54.427Z,70.10
2018-06-23T07:56:22.146Z,70.10
2018-06-23T07:58:49.905Z,70.40
2018-06-23T08:01:17.625Z,70.30
2018-06-23T08:03:45.324Z,70.20
2018-06-23T08:06:13.002Z,70.30
2018-06-23T08:08:40.688Z,70.20
2018-06-23T08:11:08.374Z,70.20
2018-06-23T08:13:36.057Z,70.20
2018-06-23T08:16:03.750Z,70.20
2018-06-23T08:18:31.448Z,70.20
2018-06-23T08:20:59.142Z,70.30
2018-06-23T08:23:26.835Z,70.30
2018-06-23T08:25:54.533Z,70.30
2018-06-23T08:28:22.228Z,70.40
2018-06-23T08:30:49.960Z,70.70
2018-06-23T08:33:17.668Z,70.50
2018-06-23T08:35:45.364Z,70.60
2018-06-23T08:38:13.093Z,70.40
2018-06-23T08:40:40.845Z,70.70
2018-06-23T08:43:08.541Z,70.40
2018-06-23T08:45:36.237Z,70.50
2018-06-23T08:48:04.061Z,70.30
2018-06-23T08:50:32.466Z,70.30
2018-06-23T08:53:00.166Z,70.70
2018-06-23T08:55:27.923Z,70.80
2018-06-23T08:57:55.608Z,70.70
2018-06-23T09:00:23.304Z,70.40
2018-06-23T09:02:51.040Z,70.20
2018-06-23T09:05:18.851Z,70.00
2018-06-23T09:07:47.447Z,69.70
2018-06-23T09:10:15.144Z,69.50
2018-06-23T09:12:42.885Z,69.10
2018-06-23T09:15:10.718Z,69.10
2018-06-23T09:17:38.417Z,68.90
2018-06-23T09:20:06.141Z,68.80
2018-06-23T09:22:33.840Z,68.70
2018-06-23T09:25:01.549Z,68.70
2018-06-23T09:27:29.245Z,68.50
2018-06-23T09:29:56.965Z,68.80
2018-06-23T09:32:25.622Z,68.80
2018-06-23T09:34:54.216Z,68.80
2018-06-23T09:37:21.897Z,69.00
2018-06-23T09:39:50.088Z,68.90
2018-06-23T09:42:18.808Z,68.80
2018-06-23T09:44:47.497Z,69.10
2018-06-23T09:47:15.195Z,68.90
2018-06-23T09:49:42.873Z,68.70
2018-06-23T09:52:10.566Z,68.90
2018-06-23T09:54:38.692Z,69.10
2018-06-23T09:57:06.830Z,68.80
2018-06-23T09:59:35.640Z,68.90
2018-06-23T10:02:03.360Z,68.70
2018-06-23T10:04:31.142Z,68.90
2018-06-23T10:06:58.826Z,69.10
2018-06-23T10:09:27.210Z,69.10
2018-06-23T10:11:55.023Z,69.10
2018-06-23T10:14:22.706Z,68.60
2018-06-23T10:16:51.281Z,68.50
2018-06-23T10:19:18.976Z,68.80
2018-06-23T10:21:46.770Z,69.20
2018-06-23T10:24:14.469Z,69.40
2018-06-23T10:26:42.188Z,69.10
2018-06-23T10:29:09.877Z,68.80
2018-06-23T10:31:37.729Z,68.50
2018-06-23T10:34:06.709Z,69.20
2018-06-23T10:36:34.478Z,68.80
2018-06-23T10:39:02.213Z,69.00
2018-06-23T10:41:29.943Z,69.00
2018-06-23T10:43:57.677Z,68.90
2018-06-23T10:46:26.390Z,69.00
2018-06-23T10:48:55.215Z,69.10
2018-06-23T10:51:22.910Z,68.90
2018-06-23T10:53:50.592Z,69.00
2018-06-23T10:56:18.311Z,69.20
2018-06-23T10:58:45.985Z,68.80
2018-06-23T11:01:13.676Z,69.20
2018-06-23T11:03:41.373Z,70.00
2018-06-23T11:06:09.176Z,69.40
2018-06-23T11:08:36.936Z,69.50
2018-06-23T11:11:06.552Z,70.30
2018-06-23T11:14:20.452Z,69.50
2018-06-23T11:16:49.036Z,69.80
2018-06-23T11:19:16.706Z,69.70
2018-06-23T11:21:45.459Z,69.80
2018-06-23T11:24:13.142Z,69.90
2018-06-23T11:26:42.836Z,69.80
2018-06-23T11:33:01.144Z,69.90
2018-06-23T11:35:29.520Z,70.00
2018-06-23T11:37:58.113Z,70.10
2018-06-23T11:41:14.478Z,70.10
2018-06-23T11:43:43.724Z,70.30
2018-06-23T11:46:13.160Z,70.30
2018-06-23T11:49:03.011Z,70.30
2018-06-23T11:51:31.092Z,70.40
2018-06-23T11:53:58.782Z,70.30
2018-06-23T11:56:26.452Z,70.50
2018-06-23T11:58:54.111Z,70.40
2018-06-23T12:01:37.398Z,70.10
2018-06-23T12:04:10.448Z,70.10
2018-06-23T12:06:38.621Z,70.20
2018-06-23T12:09:07.403Z,70.30
2018-06-23T12:11:35.052Z,70.50
2018-06-23T12:14:02.753Z,70.40
2018-06-23T12:16:30.433Z,70.30
2018-06-23T12:18:58.092Z,71.00
2018-06-23T12:21:25.752Z,70.20
2018-06-23T12:23:53.405Z,70.20
2018-06-23T12:26:21.063Z,70.30
2018-06-23T12:28:48.833Z,70.40
2018-06-23T12:31:16.484Z,70.40
2018-06-23T12:33:44.188Z,70.50
2018-06-23T12:36:12.889Z,70.50
2018-06-23T12:38:43.408Z,70.50
2018-06-23T12:41:13.380Z,70.50
2018-06-23T12:43:43.523Z,70.50
2018-06-23T12:46:12.376Z,70.50
2018-06-23T12:48:40.501Z,70.40
2018-06-23T12:51:08.455Z,70.50
2018-06-23T12:53:36.120Z,70.60
2018-06-23T12:56:03.783Z,71.00
2018-06-23T12:58:31.460Z,70.60
2018-06-23T13:01:00.009Z,70.50
2018-06-23T13:03:27.679Z,70.50
2018-06-23T13:05:55.348Z,70.30
2018-06-23T13:08:23.020Z,70.60
2018-06-23T13:10:50.783Z,70.60
2018-06-23T13:13:18.443Z,70.60
2018-06-23T13:15:46.114Z,70.60
2018-06-23T13:18:14.667Z,70.60
2018-06-23T13:20:43.509Z,70.60
2018-06-23T13:23:11.585Z,70.70
2018-06-23T13:25:39.260Z,70.80
2018-06-23T13:28:07.056Z,70.60
2018-06-23T13:30:34.956Z,70.80
2018-06-23T13:33:02.876Z,70.70
2018-06-23T13:35:30.584Z,70.80
2018-06-23T13:37:58.248Z,70.90
2018-06-23T13:40:26.045Z,70.70
2018-06-23T13:42:53.728Z,70.80
2018-06-23T13:45:21.379Z,70.90
2018-06-23T13:47:49.043Z,70.90
2018-06-23T13:50:16.716Z,71.10
2018-06-23T13:52:44.375Z,71.00
2018-06-23T13:55:14.181Z,70.90
2018-06-23T13:57:43.299Z,70.80
2018-06-23T14:00:12.812Z,70.70
2018-06-23T14:06:00.460Z,70.90
2018-06-23T14:08:28.160Z,71.90
2018-06-23T14:10:55.832Z,71.00
2018-06-23T14:13:23.492Z,70.90
2018-06-23T14:15:51.147Z,70.90
2018-06-23T14:18:18.835Z,71.10
2018-06-23T14:20:46.700Z,71.50
2018-06-23T14:23:14.412Z,70.90
2018-06-23T14:25:44.344Z,71.10
2018-06-23T14:28:13.480Z,71.00
2018-06-23T14:30:42.280Z,70.80
2018-06-23T14:33:13.345Z,71.10
2018-06-23T14:35:42.654Z,71.10
2018-06-23T14:38:12.395Z,71.20
2018-06-23T14:40:40.574Z,71.10
2018-06-23T14:43:08.240Z,71.00
2018-06-23T14:45:43.486Z,71.10
2018-06-23T14:48:12.404Z,71.20
2018-06-23T14:50:40.565Z,71.20
2018-06-23T14:53:08.268Z,71.00
2018-06-23T14:55:35.967Z,71.10
2018-06-23T14:58:03.680Z,71.40
2018-06-23T15:00:31.408Z,71.50
2018-06-23T15:02:59.152Z,71.40
2018-06-23T15:05:26.819Z,70.80
2018-06-23T15:07:54.547Z,71.10
2018-06-23T15:10:27.946Z,71.30
2018-06-23T15:13:01.392Z,72.00
2018-06-23T15:15:29.693Z,71.50
2018-06-23T15:17:57.384Z,71.50
2018-06-23T15:20:25.077Z,71.50
2018-06-23T15:22:52.779Z,71.40
2018-06-23T15:25:20.440Z,72.30
2018-06-23T15:27:48.124Z,71.50
2018-06-23T15:30:15.788Z,71.10
2018-06-23T15:32:43.957Z,71.10
2018-06-23T15:35:12.507Z,71.10
2018-06-23T15:37:42.765Z,71.00
2018-06-23T15:40:12.448Z,71.20
2018-06-23T15:42:40.677Z,71.30
2018-06-23T15:45:09.271Z,71.30
2018-06-23T15:47:36.950Z,71.20
2018-06-23T15:50:04.628Z,71.40
2018-06-23T15:52:32.293Z,71.80
2018-06-23T15:54:59.952Z,72.00
2018-06-23T15:57:27.616Z,72.00
2018-06-23T15:59:56.333Z,72.10
2018-06-23T16:02:24.039Z,72.10
2018-06-23T16:04:51.800Z,72.00
2018-06-23T16:07:20.804Z,72.10
2018-06-23T16:09:48.472Z,72.20
2018-06-23T16:12:17.199Z,72.40
2018-06-23T16:14:44.876Z,72.60
2018-06-23T16:17:13.819Z,72.50
2018-06-23T16:19:43.536Z,72.50
2018-06-23T16:22:12.645Z,72.60
2018-06-23T16:24:43.539Z,72.50
2018-06-23T16:27:13.277Z,72.60
2018-06-23T16:29:42.365Z,72.50
2018-06-23T16:32:10.660Z,72.40
2018-06-23T16:34:39.493Z,72.60
2018-06-23T16:37:07.116Z,72.60
2018-06-23T16:39:35.056Z,72.70
2018-06-23T16:42:02.756Z,72.50
2018-06-23T16:44:30.449Z,72.60
2018-06-23T16:46:58.156Z,72.60
2018-06-23T16:49:25.827Z,72.60
2018-06-23T16:51:53.544Z,72.60
2018-06-23T16:54:21.205Z,72.60
2018-06-23T16:56:49.809Z,72.80
2018-06-23T16:59:17.525Z,72.70
2018-06-23T17:01:45.260Z,72.80
2018-06-23T17:04:14.005Z,72.70
2018-06-23T17:06:43.719Z,72.80
2018-06-23T17:09:13.628Z,72.90
2018-06-23T17:11:43.608Z,73.00
2018-06-23T17:14:13.236Z,72.90
2018-06-23T17:16:42.760Z,73.00
2018-06-23T17:19:12.555Z,73.00
2018-06-23T17:21:40.272Z,72.90
2018-06-23T17:24:08.845Z,73.00
2018-06-23T17:26:36.544Z,72.90
2018-06-23T17:29:04.251Z,72.90
2018-06-23T17:31:31.956Z,73.00
2018-06-23T17:33:59.652Z,72.90
2018-06-23T17:36:27.316Z,73.00
2018-06-23T17:38:56.432Z,73.10
2018-06-23T17:41:25.032Z,73.00
2018-06-23T17:43:53.763Z,73.10
2018-06-23T17:46:22.483Z,73.10
2018-06-23T17:48:50.152Z,73.10
2018-06-23T17:51:18.967Z,73.10
2018-06-23T17:53:47.651Z,72.90
2018-06-23T17:56:15.421Z,72.90
2018-06-23T17:58:43.715Z,72.60
2018-06-23T18:01:12.551Z,72.50
2018-06-23T18:03:40.696Z,72.20
2018-06-23T18:06:08.463Z,72.00
2018-06-23T18:11:03.555Z,71.50
2018-06-23T18:13:31.249Z,71.30
2018-06-23T18:15:58.960Z,71.00
2018-06-23T18:18:27.675Z,70.80
2018-06-23T18:20:55.331Z,71.00
2018-06-23T18:23:22.995Z,70.70
2018-06-23T18:28:18.104Z,70.70
2018-06-23T18:30:45.784Z,70.90
2018-06-23T18:33:13.968Z,70.80
2018-06-23T18:35:43.703Z,70.90
2018-06-23T18:40:42.794Z,71.00
2018-06-23T18:43:11.650Z,71.00
2018-06-23T18:45:39.468Z,71.00
2018-06-23T18:48:08.388Z,71.10
2018-06-23T18:50:36.048Z,71.00
2018-06-23T18:53:03.832Z,71.00
2018-06-23T18:55:31.494Z,71.00
2018-06-23T18:57:59.164Z,70.90
2018-06-23T19:00:26.828Z,71.10
2018-06-23T19:02:54.532Z,71.10
2018-06-23T19:05:22.232Z,70.80
2018-06-23T19:07:50.917Z,71.10
2018-06-23T19:10:19.638Z,71.10
2018-06-23T19:12:48.304Z,71.10
2018-06-23T19:15:16.855Z,71.00
2018-06-23T19:17:45.512Z,71.00
2018-06-23T19:20:15.218Z,70.80
2018-06-23T19:22:43.386Z,71.30
2018-06-23T19:25:11.749Z,71.10
2018-06-23T19:27:39.427Z,71.10
2018-06-23T19:30:07.120Z,71.30
2018-06-23T19:32:35.687Z,71.30
2018-06-23T19:35:03.365Z,71.20
2018-06-23T19:37:31.200Z,71.50
2018-06-23T19:40:00.532Z,71.30
2018-06-23T19:42:29.096Z,71.30
2018-06-23T19:44:57.678Z,71.40
2018-06-23T19:47:25.348Z,71.40
2018-06-23T19:49:53.016Z,71.40
2018-06-23T19:52:20.683Z,71.50
2018-06-23T19:54:49.315Z,71.40
2018-06-23T19:57:16.976Z,71.60
2018-06-23T19:59:45.644Z,71.40
2018-06-23T20:02:14.429Z,71.50
2018-06-23T20:04:43.279Z,71.60
2018-06-23T20:07:11.705Z,71.50
2018-06-23T20:09:39.405Z,71.50
2018-06-23T20:12:07.199Z,71.50
2018-06-23T20:14:35.921Z,71.60
2018-06-23T20:17:03.583Z,71.50
2018-06-23T20:19:31.295Z,71.70
2018-06-23T20:21:58.958Z,71.60
2018-06-23T20:24:27.564Z,71.50
2018-06-23T20:26:56.113Z,71.60
2018-06-23T20:29:23.783Z,71.50
2018-06-23T20:31:51.556Z,71.60
2018-06-23T20:34:19.216Z,71.60
2018-06-23T20:36:46.924Z,71.50
2018-06-23T20:39:14.589Z,71.60
2018-06-23T20:41:45.616Z,71.60
2018-06-23T20:44:16.189Z,71.70
2018-06-23T20:46:46.135Z,71.80
2018-06-23T20:49:14.928Z,71.70
2018-06-23T20:51:45.879Z,71.70
2018-06-23T20:54:15.561Z,71.90
2018-06-23T20:56:48.413Z,71.80
2018-06-23T20:59:23.647Z,72.40
2018-06-23T21:01:51.412Z,71.80
2018-06-23T21:04:19.108Z,72.30
2018-06-23T21:06:47.571Z,71.90
2018-06-23T21:09:15.233Z,71.90
2018-06-23T21:11:43.929Z,72.10
2018-06-23T21:14:13.649Z,71.90
2018-06-23T21:16:43.724Z,72.00
2018-06-23T21:19:13.835Z,72.00
2018-06-23T21:21:42.551Z,72.10
2018-06-23T21:24:12.779Z,72.00
2018-06-23T21:26:42.984Z,72.00
2018-06-23T21:29:11.749Z,72.10
2018-06-23T21:31:40.428Z,72.10
2018-06-23T21:34:09.152Z,72.10
2018-06-23T21:36:36.824Z,72.10
2018-06-23T21:39:05.939Z,72.20
2018-06-23T21:41:33.596Z,72.20
2018-06-23T21:44:01.268Z,71.70
2018-06-23T21:46:28.940Z,72.30
2018-06-23T21:48:57.667Z,72.30
2018-06-23T21:51:25.376Z,72.30
2018-06-23T21:53:54.072Z,72.30
2018-06-23T21:56:21.804Z,72.40
2018-06-23T21:58:49.503Z,72.30
2018-06-23T22:01:18.212Z,72.40
2018-06-23T22:03:46.859Z,72.40
2018-06-23T22:06:15.612Z,72.40
2018-06-23T22:08:44.297Z,72.40
2018-06-23T22:11:14.367Z,72.40
2018-06-23T22:13:43.111Z,72.40
2018-06-23T22:16:13.188Z,72.40
2018-06-23T22:18:42.976Z,72.60
2018-06-23T22:21:13.279Z,72.60
2018-06-23T22:23:42.985Z,72.60
2018-06-23T22:26:12.760Z,72.60
2018-06-23T22:28:42.504Z,72.80
2018-06-23T22:31:10.992Z,72.60
2018-06-23T22:33:38.656Z,72.60
2018-06-23T22:38:34.560Z,72.70
2018-06-23T22:41:02.236Z,72.70
2018-06-23T22:43:29.904Z,72.80
2018-06-23T22:45:57.573Z,72.70
2018-06-23T22:48:25.244Z,73.50
2018-06-23T22:50:52.916Z,72.70
2018-06-23T22:53:21.466Z,72.70
2018-06-23T22:55:50.044Z,72.80
2018-06-23T22:58:17.699Z,72.80
2018-06-23T23:03:13.452Z,72.80
2018-06-23T23:05:43.016Z,72.70
2018-06-23T23:08:11.728Z,72.90
2018-06-23T23:10:40.994Z,72.80
2018-06-23T23:13:08.659Z,72.90
2018-06-23T23:15:36.322Z,72.80
2018-06-23T23:18:04.054Z,73.20
2018-06-23T23:20:31.696Z,72.80
2018-06-23T23:22:59.400Z,72.70
2018-06-23T23:25:27.102Z,72.80
2018-06-23T23:27:54.747Z,72.80
2018-06-23T23:30:23.281Z,72.70
2018-06-23T23:32:50.968Z,72.90
2018-06-23T23:35:18.644Z,72.80
2018-06-23T23:37:46.709Z,72.80
2018-06-23T23:40:14.376Z,73.50
2018-06-23T23:42:44.056Z,72.90
2018-06-23T23:45:13.912Z,73.00
2018-06-23T23:47:43.975Z,73.00
2018-06-23T23:50:13.435Z,73.00
2018-06-23T23:52:44.651Z,73.00
2018-06-23T23:55:15.109Z,72.90
2018-06-23T23:57:43.990Z,73.00
